sensor_id;sensor_type;location;lat;lon;timestamp;P1;durP1;ratioP1;P2;durP2;ratioP2
22040;SDS011;11184;52.444;13.578;2024-01-11T00:00:08;41.30;;;25.38;;
22040;SDS011;11184;52.444;13.578;2024-01-11T00:02:53;41.63;;;25.95;;
22040;SDS011;11184;52.444;13.578;2024-01-11T00:05:38;44.45;;;27.17;;
22040;SDS011;11184;52.444;13.578;2024-01-11T00:08:23;38.97;;;25.13;;
22040;SDS011;11184;52.444;13.578;2024-01-11T00:11:07;33.15;;;24.25;;
22040;SDS011;11184;52.444;13.578;2024-01-11T00:13:52;39.22;;;24.83;;
22040;SDS011;11184;52.444;13.578;2024-01-11T00:16:36;40.88;;;25.90;;
22040;SDS011;11184;52.444;13.578;2024-01-11T00:19:21;46.78;;;26.77;;
22040;SDS011;11184;52.444;13.578;2024-01-11T00:22:05;44.45;;;26.52;;
22040;SDS011;11184;52.444;13.578;2024-01-11T00:24:50;37.53;;;24.00;;
22040;SDS011;11184;52.444;13.578;2024-01-11T00:27:35;42.78;;;24.00;;
22040;SDS011;11184;52.444;13.578;2024-01-11T00:30:20;39.55;;;22.48;;
22040;SDS011;11184;52.444;13.578;2024-01-11T00:33:06;31.17;;;20.80;;
22040;SDS011;11184;52.444;13.578;2024-01-11T00:35:50;37.55;;;23.30;;
22040;SDS011;11184;52.444;13.578;2024-01-11T00:38:35;33.53;;;20.90;;
22040;SDS011;11184;52.444;13.578;2024-01-11T00:41:19;42.10;;;23.13;;
22040;SDS011;11184;52.444;13.578;2024-01-11T00:44:04;35.55;;;22.30;;
22040;SDS011;11184;52.444;13.578;2024-01-11T00:46:51;34.72;;;22.50;;
22040;SDS011;11184;52.444;13.578;2024-01-11T00:49:35;35.45;;;20.95;;
22040;SDS011;11184;52.444;13.578;2024-01-11T00:52:20;34.55;;;20.17;;
22040;SDS011;11184;52.444;13.578;2024-01-11T00:55:05;32.45;;;19.70;;
22040;SDS011;11184;52.444;13.578;2024-01-11T00:57:51;30.08;;;20.27;;
22040;SDS011;11184;52.444;13.578;2024-01-11T01:00:35;38.92;;;23.55;;
22040;SDS011;11184;52.444;13.578;2024-01-11T01:03:20;41.60;;;24.30;;
22040;SDS011;11184;52.444;13.578;2024-01-11T01:06:05;34.97;;;23.80;;
22040;SDS011;11184;52.444;13.578;2024-01-11T01:08:50;39.67;;;23.45;;
22040;SDS011;11184;52.444;13.578;2024-01-11T01:11:35;32.35;;;22.10;;
22040;SDS011;11184;52.444;13.578;2024-01-11T01:14:20;35.95;;;22.77;;
22040;SDS011;11184;52.444;13.578;2024-01-11T01:17:05;34.50;;;20.80;;
22040;SDS011;11184;52.444;13.578;2024-01-11T01:19:49;31.23;;;21.02;;
22040;SDS011;11184;52.444;13.578;2024-01-11T01:22:34;33.05;;;21.30;;
22040;SDS011;11184;52.444;13.578;2024-01-11T01:25:19;28.05;;;19.52;;
22040;SDS011;11184;52.444;13.578;2024-01-11T01:28:04;32.42;;;20.33;;
22040;SDS011;11184;52.444;13.578;2024-01-11T01:30:48;29.98;;;19.67;;
22040;SDS011;11184;52.444;13.578;2024-01-11T01:33:33;33.05;;;17.90;;
22040;SDS011;11184;52.444;13.578;2024-01-11T01:36:17;31.15;;;20.10;;
22040;SDS011;11184;52.444;13.578;2024-01-11T01:39:02;31.95;;;17.42;;
22040;SDS011;11184;52.444;13.578;2024-01-11T01:41:47;27.40;;;19.20;;
22040;SDS011;11184;52.444;13.578;2024-01-11T01:44:31;32.28;;;19.08;;
22040;SDS011;11184;52.444;13.578;2024-01-11T01:47:16;24.85;;;17.60;;
22040;SDS011;11184;52.444;13.578;2024-01-11T01:50:01;31.85;;;18.55;;
22040;SDS011;11184;52.444;13.578;2024-01-11T01:52:47;32.78;;;19.38;;
22040;SDS011;11184;52.444;13.578;2024-01-11T01:55:32;31.27;;;19.73;;
22040;SDS011;11184;52.444;13.578;2024-01-11T01:58:16;28.52;;;19.02;;
22040;SDS011;11184;52.444;13.578;2024-01-11T02:01:01;35.63;;;19.77;;
22040;SDS011;11184;52.444;13.578;2024-01-11T02:03:46;31.40;;;20.08;;
22040;SDS011;11184;52.444;13.578;2024-01-11T02:06:34;28.45;;;19.30;;
22040;SDS011;11184;52.444;13.578;2024-01-11T02:09:18;36.08;;;20.40;;
22040;SDS011;11184;52.444;13.578;2024-01-11T02:12:04;27.27;;;19.42;;
22040;SDS011;11184;52.444;13.578;2024-01-11T02:14:49;23.02;;;17.83;;
22040;SDS011;11184;52.444;13.578;2024-01-11T02:17:34;29.30;;;19.50;;
22040;SDS011;11184;52.444;13.578;2024-01-11T02:20:19;25.00;;;16.75;;
22040;SDS011;11184;52.444;13.578;2024-01-11T02:23:05;26.88;;;17.30;;
22040;SDS011;11184;52.444;13.578;2024-01-11T02:25:50;26.33;;;17.02;;
22040;SDS011;11184;52.444;13.578;2024-01-11T02:28:34;20.30;;;15.52;;
22040;SDS011;11184;52.444;13.578;2024-01-11T02:31:19;26.33;;;16.63;;
22040;SDS011;11184;52.444;13.578;2024-01-11T02:34:04;23.50;;;15.70;;
22040;SDS011;11184;52.444;13.578;2024-01-11T02:36:48;19.73;;;12.90;;
22040;SDS011;11184;52.444;13.578;2024-01-11T02:39:33;25.45;;;16.23;;
22040;SDS011;11184;52.444;13.578;2024-01-11T02:42:18;20.63;;;14.20;;
22040;SDS011;11184;52.444;13.578;2024-01-11T02:45:03;21.27;;;13.57;;
22040;SDS011;11184;52.444;13.578;2024-01-11T02:47:48;20.15;;;11.82;;
22040;SDS011;11184;52.444;13.578;2024-01-11T02:50:33;22.00;;;12.65;;
22040;SDS011;11184;52.444;13.578;2024-01-11T02:53:17;22.40;;;13.63;;
22040;SDS011;11184;52.444;13.578;2024-01-11T02:56:02;30.45;;;15.20;;
22040;SDS011;11184;52.444;13.578;2024-01-11T02:58:47;24.00;;;12.77;;
22040;SDS011;11184;52.444;13.578;2024-01-11T03:01:31;20.35;;;14.15;;
22040;SDS011;11184;52.444;13.578;2024-01-11T03:04:16;20.63;;;13.43;;
22040;SDS011;11184;52.444;13.578;2024-01-11T03:07:01;24.17;;;13.85;;
22040;SDS011;11184;52.444;13.578;2024-01-11T03:09:45;23.35;;;13.32;;
22040;SDS011;11184;52.444;13.578;2024-01-11T03:12:30;19.92;;;12.95;;
22040;SDS011;11184;52.444;13.578;2024-01-11T03:15:15;23.08;;;12.60;;
22040;SDS011;11184;52.444;13.578;2024-01-11T03:17:59;21.52;;;14.27;;
22040;SDS011;11184;52.444;13.578;2024-01-11T03:20:44;23.42;;;13.85;;
22040;SDS011;11184;52.444;13.578;2024-01-11T03:23:29;22.17;;;13.30;;
22040;SDS011;11184;52.444;13.578;2024-01-11T03:26:15;28.38;;;15.32;;
22040;SDS011;11184;52.444;13.578;2024-01-11T03:29:00;24.13;;;14.13;;
22040;SDS011;11184;52.444;13.578;2024-01-11T03:31:45;26.92;;;14.90;;
22040;SDS011;11184;52.444;13.578;2024-01-11T03:34:29;28.23;;;14.38;;
22040;SDS011;11184;52.444;13.578;2024-01-11T03:37:14;25.25;;;13.70;;
22040;SDS011;11184;52.444;13.578;2024-01-11T03:40:00;26.15;;;14.85;;
22040;SDS011;11184;52.444;13.578;2024-01-11T03:42:45;27.08;;;14.80;;
22040;SDS011;11184;52.444;13.578;2024-01-11T03:45:30;26.70;;;15.23;;
22040;SDS011;11184;52.444;13.578;2024-01-11T03:48:14;30.52;;;17.83;;
22040;SDS011;11184;52.444;13.578;2024-01-11T03:50:59;30.63;;;14.75;;
22040;SDS011;11184;52.444;13.578;2024-01-11T03:53:44;22.42;;;14.77;;
22040;SDS011;11184;52.444;13.578;2024-01-11T03:56:28;20.73;;;12.90;;
22040;SDS011;11184;52.444;13.578;2024-01-11T03:59:13;21.25;;;14.10;;
22040;SDS011;11184;52.444;13.578;2024-01-11T04:01:57;27.00;;;15.38;;
22040;SDS011;11184;52.444;13.578;2024-01-11T04:04:42;23.50;;;14.57;;
22040;SDS011;11184;52.444;13.578;2024-01-11T04:07:27;22.67;;;14.07;;
22040;SDS011;11184;52.444;13.578;2024-01-11T04:10:11;26.00;;;14.30;;
22040;SDS011;11184;52.444;13.578;2024-01-11T04:12:56;29.70;;;15.02;;
22040;SDS011;11184;52.444;13.578;2024-01-11T04:15:41;23.27;;;13.15;;
22040;SDS011;11184;52.444;13.578;2024-01-11T04:18:26;23.83;;;14.60;;
22040;SDS011;11184;52.444;13.578;2024-01-11T04:21:23;22.77;;;14.38;;
22040;SDS011;11184;52.444;13.578;2024-01-11T04:24:08;25.98;;;13.60;;
22040;SDS011;11184;52.444;13.578;2024-01-11T04:26:52;22.45;;;13.30;;
22040;SDS011;11184;52.444;13.578;2024-01-11T04:29:37;23.42;;;12.50;;
22040;SDS011;11184;52.444;13.578;2024-01-11T04:32:22;27.95;;;14.27;;
22040;SDS011;11184;52.444;13.578;2024-01-11T04:35:06;30.48;;;14.13;;
22040;SDS011;11184;52.444;13.578;2024-01-11T04:37:51;30.15;;;14.68;;
22040;SDS011;11184;52.444;13.578;2024-01-11T04:40:36;27.45;;;14.10;;
22040;SDS011;11184;52.444;13.578;2024-01-11T04:43:20;28.83;;;14.27;;
22040;SDS011;11184;52.444;13.578;2024-01-11T04:46:18;30.08;;;12.32;;
22040;SDS011;11184;52.444;13.578;2024-01-11T04:49:02;25.35;;;13.73;;
22040;SDS011;11184;52.444;13.578;2024-01-11T04:51:47;29.63;;;16.70;;
22040;SDS011;11184;52.444;13.578;2024-01-11T04:54:32;36.10;;;18.40;;
22040;SDS011;11184;52.444;13.578;2024-01-11T04:57:16;28.17;;;15.38;;
22040;SDS011;11184;52.444;13.578;2024-01-11T05:00:01;26.38;;;12.95;;
22040;SDS011;11184;52.444;13.578;2024-01-11T05:02:46;26.77;;;13.38;;
22040;SDS011;11184;52.444;13.578;2024-01-11T05:05:31;25.00;;;13.93;;
22040;SDS011;11184;52.444;13.578;2024-01-11T05:08:15;27.95;;;13.35;;
22040;SDS011;11184;52.444;13.578;2024-01-11T05:11:00;24.35;;;13.77;;
22040;SDS011;11184;52.444;13.578;2024-01-11T05:13:45;30.02;;;13.63;;
22040;SDS011;11184;52.444;13.578;2024-01-11T05:16:31;35.25;;;16.40;;
22040;SDS011;11184;52.444;13.578;2024-01-11T05:19:16;43.55;;;17.27;;
22040;SDS011;11184;52.444;13.578;2024-01-11T05:22:00;49.88;;;21.90;;
22040;SDS011;11184;52.444;13.578;2024-01-11T05:24:45;45.38;;;20.48;;
22040;SDS011;11184;52.444;13.578;2024-01-11T05:27:30;45.33;;;19.88;;
22040;SDS011;11184;52.444;13.578;2024-01-11T05:30:14;38.83;;;19.13;;
22040;SDS011;11184;52.444;13.578;2024-01-11T05:32:59;47.67;;;20.77;;
22040;SDS011;11184;52.444;13.578;2024-01-11T05:35:44;55.08;;;19.85;;
22040;SDS011;11184;52.444;13.578;2024-01-11T05:38:28;48.40;;;18.10;;
22040;SDS011;11184;52.444;13.578;2024-01-11T05:41:13;45.67;;;19.15;;
22040;SDS011;11184;52.444;13.578;2024-01-11T05:43:58;46.10;;;21.48;;
22040;SDS011;11184;52.444;13.578;2024-01-11T05:46:43;50.13;;;20.40;;
22040;SDS011;11184;52.444;13.578;2024-01-11T05:49:27;39.95;;;16.95;;
22040;SDS011;11184;52.444;13.578;2024-01-11T05:52:12;38.03;;;16.58;;
22040;SDS011;11184;52.444;13.578;2024-01-11T05:54:57;30.27;;;14.90;;
22040;SDS011;11184;52.444;13.578;2024-01-11T05:57:41;39.08;;;16.83;;
22040;SDS011;11184;52.444;13.578;2024-01-11T06:00:26;48.33;;;17.60;;
22040;SDS011;11184;52.444;13.578;2024-01-11T06:03:11;46.28;;;17.88;;
22040;SDS011;11184;52.444;13.578;2024-01-11T06:05:56;41.95;;;19.65;;
22040;SDS011;11184;52.444;13.578;2024-01-11T06:08:41;38.63;;;15.85;;
22040;SDS011;11184;52.444;13.578;2024-01-11T06:11:27;42.83;;;16.27;;
22040;SDS011;11184;52.444;13.578;2024-01-11T06:14:11;47.30;;;19.35;;
22040;SDS011;11184;52.444;13.578;2024-01-11T06:16:56;49.70;;;19.60;;
22040;SDS011;11184;52.444;13.578;2024-01-11T06:19:41;44.75;;;16.83;;
22040;SDS011;11184;52.444;13.578;2024-01-11T06:22:26;46.10;;;18.10;;
22040;SDS011;11184;52.444;13.578;2024-01-11T06:25:11;42.85;;;18.15;;
22040;SDS011;11184;52.444;13.578;2024-01-11T06:27:56;51.35;;;17.48;;
22040;SDS011;11184;52.444;13.578;2024-01-11T06:30:40;56.45;;;20.00;;
22040;SDS011;11184;52.444;13.578;2024-01-11T06:33:26;45.05;;;17.83;;
22040;SDS011;11184;52.444;13.578;2024-01-11T06:36:12;47.42;;;18.13;;
22040;SDS011;11184;52.444;13.578;2024-01-11T06:38:56;53.08;;;19.20;;
22040;SDS011;11184;52.444;13.578;2024-01-11T06:41:41;50.10;;;21.88;;
22040;SDS011;11184;52.444;13.578;2024-01-11T06:44:25;41.58;;;16.98;;
22040;SDS011;11184;52.444;13.578;2024-01-11T06:47:10;46.45;;;17.52;;
22040;SDS011;11184;52.444;13.578;2024-01-11T06:49:54;43.50;;;18.92;;
22040;SDS011;11184;52.444;13.578;2024-01-11T06:52:39;49.63;;;19.27;;
22040;SDS011;11184;52.444;13.578;2024-01-11T06:55:24;44.45;;;20.40;;
22040;SDS011;11184;52.444;13.578;2024-01-11T06:58:08;49.63;;;19.65;;
22040;SDS011;11184;52.444;13.578;2024-01-11T07:00:53;54.95;;;19.08;;
22040;SDS011;11184;52.444;13.578;2024-01-11T07:03:38;48.90;;;18.35;;
22040;SDS011;11184;52.444;13.578;2024-01-11T07:06:23;58.10;;;20.02;;
22040;SDS011;11184;52.444;13.578;2024-01-11T07:09:07;45.63;;;19.45;;
22040;SDS011;11184;52.444;13.578;2024-01-11T07:11:54;55.15;;;19.83;;
22040;SDS011;11184;52.444;13.578;2024-01-11T07:14:39;49.75;;;19.80;;
22040;SDS011;11184;52.444;13.578;2024-01-11T07:17:23;49.05;;;17.45;;
22040;SDS011;11184;52.444;13.578;2024-01-11T07:20:08;49.35;;;20.45;;
22040;SDS011;11184;52.444;13.578;2024-01-11T07:22:53;40.97;;;17.92;;
22040;SDS011;11184;52.444;13.578;2024-01-11T07:25:38;50.47;;;20.27;;
22040;SDS011;11184;52.444;13.578;2024-01-11T07:28:23;49.92;;;19.98;;
22040;SDS011;11184;52.444;13.578;2024-01-11T07:31:10;56.47;;;22.10;;
22040;SDS011;11184;52.444;13.578;2024-01-11T07:33:54;50.30;;;21.70;;
22040;SDS011;11184;52.444;13.578;2024-01-11T07:36:39;63.38;;;22.90;;
22040;SDS011;11184;52.444;13.578;2024-01-11T07:39:24;51.95;;;21.05;;
22040;SDS011;11184;52.444;13.578;2024-01-11T07:42:08;64.32;;;22.23;;
22040;SDS011;11184;52.444;13.578;2024-01-11T07:44:53;53.55;;;23.10;;
22040;SDS011;11184;52.444;13.578;2024-01-11T07:47:38;48.75;;;22.00;;
22040;SDS011;11184;52.444;13.578;2024-01-11T07:50:23;51.95;;;19.83;;
22040;SDS011;11184;52.444;13.578;2024-01-11T07:53:07;51.50;;;21.27;;
22040;SDS011;11184;52.444;13.578;2024-01-11T07:55:52;55.63;;;22.10;;
22040;SDS011;11184;52.444;13.578;2024-01-11T07:58:37;46.60;;;21.95;;
22040;SDS011;11184;52.444;13.578;2024-01-11T08:01:22;51.33;;;22.85;;
22040;SDS011;11184;52.444;13.578;2024-01-11T08:04:06;52.38;;;22.25;;
22040;SDS011;11184;52.444;13.578;2024-01-11T08:06:51;45.15;;;20.30;;
22040;SDS011;11184;52.444;13.578;2024-01-11T08:09:36;57.25;;;22.83;;
22040;SDS011;11184;52.444;13.578;2024-01-11T08:12:22;63.42;;;22.83;;
22040;SDS011;11184;52.444;13.578;2024-01-11T08:15:07;64.82;;;23.52;;
22040;SDS011;11184;52.444;13.578;2024-01-11T08:17:55;67.95;;;23.27;;
22040;SDS011;11184;52.444;13.578;2024-01-11T08:20:40;55.90;;;23.27;;
22040;SDS011;11184;52.444;13.578;2024-01-11T08:23:25;63.25;;;23.23;;
22040;SDS011;11184;52.444;13.578;2024-01-11T08:26:13;61.80;;;24.73;;
22040;SDS011;11184;52.444;13.578;2024-01-11T08:28:58;73.05;;;26.10;;
22040;SDS011;11184;52.444;13.578;2024-01-11T08:31:42;71.15;;;23.92;;
22040;SDS011;11184;52.444;13.578;2024-01-11T08:34:27;59.70;;;23.45;;
22040;SDS011;11184;52.444;13.578;2024-01-11T08:37:12;62.38;;;23.67;;
22040;SDS011;11184;52.444;13.578;2024-01-11T08:39:57;55.10;;;22.25;;
22040;SDS011;11184;52.444;13.578;2024-01-11T08:42:42;70.03;;;24.63;;
22040;SDS011;11184;52.444;13.578;2024-01-11T08:45:26;75.53;;;24.55;;
22040;SDS011;11184;52.444;13.578;2024-01-11T08:48:13;67.95;;;25.70;;
22040;SDS011;11184;52.444;13.578;2024-01-11T08:50:58;70.28;;;26.08;;
22040;SDS011;11184;52.444;13.578;2024-01-11T08:53:43;66.30;;;25.15;;
22040;SDS011;11184;52.444;13.578;2024-01-11T08:56:28;63.72;;;24.02;;
22040;SDS011;11184;52.444;13.578;2024-01-11T08:59:12;69.30;;;24.70;;
22040;SDS011;11184;52.444;13.578;2024-01-11T09:01:57;73.05;;;27.55;;
22040;SDS011;11184;52.444;13.578;2024-01-11T09:04:42;64.05;;;25.73;;
22040;SDS011;11184;52.444;13.578;2024-01-11T09:07:26;70.05;;;27.27;;
22040;SDS011;11184;52.444;13.578;2024-01-11T09:10:12;64.72;;;25.23;;
22040;SDS011;11184;52.444;13.578;2024-01-11T09:12:56;60.00;;;23.92;;
22040;SDS011;11184;52.444;13.578;2024-01-11T09:15:41;65.20;;;23.17;;
22040;SDS011;11184;52.444;13.578;2024-01-11T09:18:26;61.60;;;23.88;;
22040;SDS011;11184;52.444;13.578;2024-01-11T09:21:11;63.22;;;22.90;;
22040;SDS011;11184;52.444;13.578;2024-01-11T09:23:56;67.07;;;25.88;;
22040;SDS011;11184;52.444;13.578;2024-01-11T09:26:40;53.85;;;21.38;;
22040;SDS011;11184;52.444;13.578;2024-01-11T09:29:25;54.38;;;23.88;;
22040;SDS011;11184;52.444;13.578;2024-01-11T09:32:11;61.55;;;22.67;;
22040;SDS011;11184;52.444;13.578;2024-01-11T09:34:56;55.08;;;22.08;;
22040;SDS011;11184;52.444;13.578;2024-01-11T09:37:41;54.70;;;24.02;;
22040;SDS011;11184;52.444;13.578;2024-01-11T09:40:27;61.70;;;26.08;;
22040;SDS011;11184;52.444;13.578;2024-01-11T09:43:12;54.72;;;23.13;;
22040;SDS011;11184;52.444;13.578;2024-01-11T09:45:56;54.75;;;22.30;;
22040;SDS011;11184;52.444;13.578;2024-01-11T09:48:42;56.08;;;22.50;;
22040;SDS011;11184;52.444;13.578;2024-01-11T09:51:27;61.80;;;25.50;;
22040;SDS011;11184;52.444;13.578;2024-01-11T09:54:13;49.88;;;22.08;;
22040;SDS011;11184;52.444;13.578;2024-01-11T09:56:58;53.63;;;22.75;;
22040;SDS011;11184;52.444;13.578;2024-01-11T09:59:44;55.65;;;23.58;;
22040;SDS011;11184;52.444;13.578;2024-01-11T10:02:30;58.75;;;23.95;;
22040;SDS011;11184;52.444;13.578;2024-01-11T10:05:15;59.50;;;24.88;;
22040;SDS011;11184;52.444;13.578;2024-01-11T10:08:00;46.63;;;21.90;;
22040;SDS011;11184;52.444;13.578;2024-01-11T10:10:44;53.60;;;24.02;;
22040;SDS011;11184;52.444;13.578;2024-01-11T10:13:32;76.90;;;35.72;;
22040;SDS011;11184;52.444;13.578;2024-01-11T10:16:19;48.55;;;22.20;;
22040;SDS011;11184;52.444;13.578;2024-01-11T10:19:04;50.22;;;23.17;;
22040;SDS011;11184;52.444;13.578;2024-01-11T10:21:48;49.72;;;23.02;;
22040;SDS011;11184;52.444;13.578;2024-01-11T10:24:33;54.55;;;23.02;;
22040;SDS011;11184;52.444;13.578;2024-01-11T10:27:18;51.03;;;24.90;;
22040;SDS011;11184;52.444;13.578;2024-01-11T10:30:03;55.13;;;22.67;;
22040;SDS011;11184;52.444;13.578;2024-01-11T10:32:51;52.85;;;24.20;;
22040;SDS011;11184;52.444;13.578;2024-01-11T10:35:35;50.30;;;23.33;;
22040;SDS011;11184;52.444;13.578;2024-01-11T10:38:20;60.42;;;26.77;;
22040;SDS011;11184;52.444;13.578;2024-01-11T10:41:06;48.50;;;22.60;;
22040;SDS011;11184;52.444;13.578;2024-01-11T10:43:51;54.65;;;26.25;;
22040;SDS011;11184;52.444;13.578;2024-01-11T10:46:38;50.10;;;21.73;;
22040;SDS011;11184;52.444;13.578;2024-01-11T10:49:23;54.38;;;23.95;;
22040;SDS011;11184;52.444;13.578;2024-01-11T10:52:09;49.90;;;23.63;;
22040;SDS011;11184;52.444;13.578;2024-01-11T10:54:56;54.33;;;23.42;;
22040;SDS011;11184;52.444;13.578;2024-01-11T10:57:42;58.95;;;26.25;;
22040;SDS011;11184;52.444;13.578;2024-01-11T11:00:27;59.10;;;26.05;;
22040;SDS011;11184;52.444;13.578;2024-01-11T11:03:13;68.45;;;27.42;;
22040;SDS011;11184;52.444;13.578;2024-01-11T11:05:59;70.18;;;29.83;;
22040;SDS011;11184;52.444;13.578;2024-01-11T11:08:44;73.72;;;29.17;;
22040;SDS011;11184;52.444;13.578;2024-01-11T11:11:32;56.95;;;26.75;;
22040;SDS011;11184;52.444;13.578;2024-01-11T11:14:17;64.55;;;27.00;;
22040;SDS011;11184;52.444;13.578;2024-01-11T11:17:03;61.97;;;26.27;;
22040;SDS011;11184;52.444;13.578;2024-01-11T11:19:48;64.57;;;26.10;;
22040;SDS011;11184;52.444;13.578;2024-01-11T11:22:33;59.47;;;26.40;;
22040;SDS011;11184;52.444;13.578;2024-01-11T11:25:25;55.38;;;26.13;;
22040;SDS011;11184;52.444;13.578;2024-01-11T11:28:13;61.25;;;28.27;;
22040;SDS011;11184;52.444;13.578;2024-01-11T11:30:57;67.57;;;29.27;;
22040;SDS011;11184;52.444;13.578;2024-01-11T11:33:46;65.40;;;27.60;;
22040;SDS011;11184;52.444;13.578;2024-01-11T11:36:33;70.45;;;30.00;;
22040;SDS011;11184;52.444;13.578;2024-01-11T11:39:19;61.22;;;26.38;;
22040;SDS011;11184;52.444;13.578;2024-01-11T11:42:04;69.00;;;27.40;;
22040;SDS011;11184;52.444;13.578;2024-01-11T11:44:51;72.20;;;29.73;;
22040;SDS011;11184;52.444;13.578;2024-01-11T11:47:36;58.40;;;28.38;;
22040;SDS011;11184;52.444;13.578;2024-01-11T11:50:22;65.63;;;29.27;;
22040;SDS011;11184;52.444;13.578;2024-01-11T11:53:07;72.43;;;29.90;;
22040;SDS011;11184;52.444;13.578;2024-01-11T11:55:54;72.32;;;31.50;;
22040;SDS011;11184;52.444;13.578;2024-01-11T11:58:39;65.50;;;27.17;;
22040;SDS011;11184;52.444;13.578;2024-01-11T12:01:24;71.50;;;32.55;;
22040;SDS011;11184;52.444;13.578;2024-01-11T12:04:08;66.75;;;27.33;;
22040;SDS011;11184;52.444;13.578;2024-01-11T12:06:53;65.88;;;27.85;;
22040;SDS011;11184;52.444;13.578;2024-01-11T12:09:38;65.43;;;28.25;;
22040;SDS011;11184;52.444;13.578;2024-01-11T12:12:23;68.95;;;26.40;;
22040;SDS011;11184;52.444;13.578;2024-01-11T12:15:07;69.35;;;29.15;;
22040;SDS011;11184;52.444;13.578;2024-01-11T12:17:57;60.95;;;27.48;;
22040;SDS011;11184;52.444;13.578;2024-01-11T12:20:42;64.50;;;27.52;;
22040;SDS011;11184;52.444;13.578;2024-01-11T12:23:27;55.45;;;23.27;;
22040;SDS011;11184;52.444;13.578;2024-01-11T12:26:16;57.67;;;25.30;;
22040;SDS011;11184;52.444;13.578;2024-01-11T12:29:05;69.00;;;27.63;;
22040;SDS011;11184;52.444;13.578;2024-01-11T12:31:51;62.15;;;26.58;;
22040;SDS011;11184;52.444;13.578;2024-01-11T12:34:36;64.88;;;26.52;;
22040;SDS011;11184;52.444;13.578;2024-01-11T12:37:20;65.85;;;28.92;;
22040;SDS011;11184;52.444;13.578;2024-01-11T12:40:05;63.40;;;29.27;;
22040;SDS011;11184;52.444;13.578;2024-01-11T12:42:50;66.20;;;28.83;;
22040;SDS011;11184;52.444;13.578;2024-01-11T12:45:35;66.00;;;30.05;;
22040;SDS011;11184;52.444;13.578;2024-01-11T12:48:20;71.65;;;27.73;;
22040;SDS011;11184;52.444;13.578;2024-01-11T12:51:04;75.55;;;30.23;;
22040;SDS011;11184;52.444;13.578;2024-01-11T12:53:51;66.68;;;28.35;;
22040;SDS011;11184;52.444;13.578;2024-01-11T12:56:36;65.53;;;29.25;;
22040;SDS011;11184;52.444;13.578;2024-01-11T13:02:11;65.35;;;27.98;;
22040;SDS011;11184;52.444;13.578;2024-01-11T13:04:57;66.55;;;27.33;;
22040;SDS011;11184;52.444;13.578;2024-01-11T13:07:46;62.65;;;27.20;;
22040;SDS011;11184;52.444;13.578;2024-01-11T13:10:30;64.05;;;28.77;;
22040;SDS011;11184;52.444;13.578;2024-01-11T13:13:15;69.05;;;28.15;;
22040;SDS011;11184;52.444;13.578;2024-01-11T13:15:59;69.32;;;31.70;;
22040;SDS011;11184;52.444;13.578;2024-01-11T13:18:47;59.58;;;26.08;;
22040;SDS011;11184;52.444;13.578;2024-01-11T13:21:31;66.75;;;29.75;;
22040;SDS011;11184;52.444;13.578;2024-01-11T13:24:16;55.75;;;26.73;;
22040;SDS011;11184;52.444;13.578;2024-01-11T13:27:01;69.75;;;30.73;;
22040;SDS011;11184;52.444;13.578;2024-01-11T13:29:46;62.70;;;29.95;;
22040;SDS011;11184;52.444;13.578;2024-01-11T13:32:31;57.03;;;29.05;;
22040;SDS011;11184;52.444;13.578;2024-01-11T13:35:16;63.00;;;29.63;;
22040;SDS011;11184;52.444;13.578;2024-01-11T13:38:00;58.13;;;25.08;;
22040;SDS011;11184;52.444;13.578;2024-01-11T13:40:45;57.70;;;27.00;;
22040;SDS011;11184;52.444;13.578;2024-01-11T13:43:30;60.90;;;26.30;;
22040;SDS011;11184;52.444;13.578;2024-01-11T13:46:15;56.70;;;26.13;;
22040;SDS011;11184;52.444;13.578;2024-01-11T13:49:03;55.50;;;27.85;;
22040;SDS011;11184;52.444;13.578;2024-01-11T13:51:48;61.08;;;26.38;;
22040;SDS011;11184;52.444;13.578;2024-01-11T13:54:32;61.05;;;27.35;;
22040;SDS011;11184;52.444;13.578;2024-01-11T13:57:17;62.13;;;28.02;;
22040;SDS011;11184;52.444;13.578;2024-01-11T14:00:02;51.88;;;26.70;;
22040;SDS011;11184;52.444;13.578;2024-01-11T14:02:47;55.67;;;26.88;;
22040;SDS011;11184;52.444;13.578;2024-01-11T14:05:31;50.65;;;23.35;;
22040;SDS011;11184;52.444;13.578;2024-01-11T14:08:16;56.08;;;25.67;;
22040;SDS011;11184;52.444;13.578;2024-01-11T14:11:01;65.18;;;27.48;;
22040;SDS011;11184;52.444;13.578;2024-01-11T14:13:46;59.45;;;28.02;;
22040;SDS011;11184;52.444;13.578;2024-01-11T14:16:30;55.75;;;24.00;;
22040;SDS011;11184;52.444;13.578;2024-01-11T14:19:15;55.58;;;26.70;;
22040;SDS011;11184;52.444;13.578;2024-01-11T14:21:59;51.65;;;25.55;;
22040;SDS011;11184;52.444;13.578;2024-01-11T14:24:44;47.63;;;23.27;;
22040;SDS011;11184;52.444;13.578;2024-01-11T14:27:28;52.60;;;24.23;;
22040;SDS011;11184;52.444;13.578;2024-01-11T14:30:14;49.40;;;24.10;;
22040;SDS011;11184;52.444;13.578;2024-01-11T14:32:59;47.00;;;23.20;;
22040;SDS011;11184;52.444;13.578;2024-01-11T14:35:43;44.88;;;22.70;;
22040;SDS011;11184;52.444;13.578;2024-01-11T14:38:28;62.35;;;24.98;;
22040;SDS011;11184;52.444;13.578;2024-01-11T14:41:13;58.90;;;25.83;;
22040;SDS011;11184;52.444;13.578;2024-01-11T14:43:58;51.13;;;23.40;;
22040;SDS011;11184;52.444;13.578;2024-01-11T14:46:43;57.83;;;27.88;;
22040;SDS011;11184;52.444;13.578;2024-01-11T14:49:28;54.92;;;23.92;;
22040;SDS011;11184;52.444;13.578;2024-01-11T14:52:12;60.58;;;26.92;;
22040;SDS011;11184;52.444;13.578;2024-01-11T14:54:57;57.53;;;26.27;;
22040;SDS011;11184;52.444;13.578;2024-01-11T14:57:42;57.10;;;26.42;;
22040;SDS011;11184;52.444;13.578;2024-01-11T15:00:27;51.75;;;24.42;;
22040;SDS011;11184;52.444;13.578;2024-01-11T15:03:11;60.10;;;25.02;;
22040;SDS011;11184;52.444;13.578;2024-01-11T15:05:56;55.95;;;24.60;;
22040;SDS011;11184;52.444;13.578;2024-01-11T15:08:41;49.95;;;25.15;;
22040;SDS011;11184;52.444;13.578;2024-01-11T15:11:26;48.90;;;23.17;;
22040;SDS011;11184;52.444;13.578;2024-01-11T15:14:11;56.80;;;26.35;;
22040;SDS011;11184;52.444;13.578;2024-01-11T15:16:57;55.20;;;25.77;;
22040;SDS011;11184;52.444;13.578;2024-01-11T15:19:42;49.80;;;22.50;;
22040;SDS011;11184;52.444;13.578;2024-01-11T15:22:27;58.22;;;24.48;;
22040;SDS011;11184;52.444;13.578;2024-01-11T15:25:11;54.35;;;24.77;;
22040;SDS011;11184;52.444;13.578;2024-01-11T15:27:56;49.70;;;23.63;;
22040;SDS011;11184;52.444;13.578;2024-01-11T15:30:40;52.30;;;23.75;;
22040;SDS011;11184;52.444;13.578;2024-01-11T15:33:25;43.25;;;21.25;;
22040;SDS011;11184;52.444;13.578;2024-01-11T15:36:10;45.65;;;26.20;;
22040;SDS011;11184;52.444;13.578;2024-01-11T15:38:54;46.85;;;21.38;;
22040;SDS011;11184;52.444;13.578;2024-01-11T15:41:39;46.75;;;20.27;;
22040;SDS011;11184;52.444;13.578;2024-01-11T15:44:25;35.75;;;19.52;;
22040;SDS011;11184;52.444;13.578;2024-01-11T15:47:10;29.13;;;15.82;;
22040;SDS011;11184;52.444;13.578;2024-01-11T15:49:54;34.58;;;19.17;;
22040;SDS011;11184;52.444;13.578;2024-01-11T15:52:39;27.08;;;15.25;;